Time;durP1;ratioP1;P1;durP2;ratioP2;P2;SDS_P1;SDS_P2;PMS_P1;PMS_P2;Temp;Humidity;BMP_temperature;BMP_pressure;BME280_temperature;BME280_humidity;BME280_pressure;Samples;Min_cycle;Max_cycle;Signal;HPM_P1;HPM_P2
2023/03/12 00:00:27;;;;;;;;;;;;;;;-0.99;73.08;96424.39;108972;1250;96894;-70
2023/03/12 00:03:15;;;;;;;;;;;;;;;-0.94;72.87;96427.64;109027;1251;96987;-72
2023/03/12 00:05:43;;;;;;;;;;;;;;;-0.90;72.72;96428.10;108684;1251;104982;-71
2023/03/12 00:08:12;;;;;;;;;;;;;;;-0.90;72.70;96428.83;109009;1251;101353;-72
2023/03/12 00:10:40;;;;;;;;;;;;;;;-0.90;72.76;96432.52;108960;1250;100090;-70
2023/03/12 00:13:08;;;;;;;;;;;;;;;-0.90;72.63;96434.30;109006;1250;96908;-71
2023/03/12 00:15:38;;;;;;;;;;;;;;;-0.87;72.64;96437.25;108731;1251;97009;-71
2023/03/12 00:18:06;;;;;;;;;;;;;;;-0.85;72.72;96436.13;109033;1251;104014;-71
2023/03/12 00:20:34;;;;;;;;;;;;;;;-0.84;72.69;96436.88;109035;1250;101262;-71
2023/03/12 00:23:02;;;;;;;;;;;;;;;-0.87;72.69;96443.15;108951;1251;100102;-70
2023/03/12 00:25:30;;;;;;;;;;;;;;;-0.89;72.68;96449.70;108926;1251;96884;-71
2023/03/12 00:27:58;;;;;;;;;;;;;;;-0.87;72.73;96445.50;109007;1249;97984;-71
2023/03/12 00:30:28;;;;;;;;;;;;;;;-0.85;72.65;96445.77;108977;1250;103492;-71
2023/03/12 00:32:56;;;;;;;;;;;;;;;-0.83;72.53;96449.79;108653;1251;101305;-71
2023/03/12 00:35:24;;;;;;;;;;;;;;;-0.82;72.57;96451.69;108920;1251;100125;-71
2023/03/12 00:37:52;;;;;;;;;;;;;;;-0.80;72.62;96458.02;108977;1251;96896;-73
2023/03/12 00:40:20;;;;;;;;;;;;;;;-0.79;72.47;96460.48;109025;1251;97123;-73
2023/03/12 00:42:48;;;;;;;;;;;;;;;-0.78;72.44;96460.41;108987;1249;104680;-73
2023/03/12 00:45:16;;;;;;;;;;;;;;;-0.76;72.47;96461.97;109032;1250;101265;-70
2023/03/12 00:47:44;;;;;;;;;;;;;;;-0.74;72.36;96464.95;108997;1249;100055;-71
2023/03/12 00:50:12;;;;;;;;;;;;;;;-0.73;72.29;96463.04;108977;1251;96845;-70
2023/03/12 00:52:40;;;;;;;;;;;;;;;-0.73;72.26;96465.23;109050;1251;97131;-71
2023/03/12 00:55:08;;;;;;;;;;;;;;;-0.74;72.28;96466.13;108965;1249;104766;-70
2023/03/12 00:57:36;;;;;;;;;;;;;;;-0.77;72.01;96471.05;109049;1251;101518;-72
2023/03/12 01:00:08;;;;;;;;;;;;;;;-0.79;71.94;96469.54;108716;1250;99490;-73
2023/03/12 01:02:40;;;;;;;;;;;;;;;-0.77;71.79;96474.65;109012;1251;96908;-71
2023/03/12 01:05:08;;;;;;;;;;;;;;;-0.76;71.85;96479.77;109024;1250;96921;-73
2023/03/12 01:07:36;;;;;;;;;;;;;;;-0.75;71.63;96478.08;108967;1251;104884;-72
2023/03/12 01:10:05;;;;;;;;;;;;;;;-0.77;71.43;96480.42;109053;1251;101135;-72
2023/03/12 01:12:33;;;;;;;;;;;;;;;-0.79;71.39;96484.68;109007;1250;99845;-71
2023/03/12 01:15:02;;;;;;;;;;;;;;;-0.80;71.37;96484.68;108994;1250;96914;-74
2023/03/12 01:17:30;;;;;;;;;;;;;;;-0.80;71.49;96491.17;109029;1252;97277;-72
2023/03/12 01:19:58;;;;;;;;;;;;;;;-0.79;71.27;96492.90;109031;1249;104575;-72
2023/03/12 01:22:26;;;;;;;;;;;;;;;-0.80;71.26;96492.95;109010;1251;101040;-72
2023/03/12 01:24:54;;;;;;;;;;;;;;;-0.84;70.90;96495.11;108975;1251;100278;-72
2023/03/12 01:27:22;;;;;;;;;;;;;;;-0.88;70.87;96494.48;108662;1251;96962;-72
2023/03/12 01:29:50;;;;;;;;;;;;;;;-0.91;70.87;96491.82;108954;1250;97185;-72
2023/03/12 01:32:18;;;;;;;;;;;;;;;-0.91;70.72;96494.63;109034;1251;105106;-72
2023/03/12 01:34:46;;;;;;;;;;;;;;;-0.91;70.79;96495.36;109021;1251;101036;-75
2023/03/12 01:37:14;;;;;;;;;;;;;;;-0.93;70.55;96490.45;109030;1250;100242;-72
2023/03/12 01:39:42;;;;;;;;;;;;;;;-0.94;70.29;96493.58;108977;1250;97329;-71
2023/03/12 01:42:10;;;;;;;;;;;;;;;-0.94;70.42;96496.27;108664;1251;96974;-73
2023/03/12 01:44:50;;;;;;;;;;;;;;;-0.98;70.27;96498.04;109032;1251;104835;-71
2023/03/12 01:47:18;;;;;;;;;;;;;;;-0.99;70.18;96498.86;109014;1250;101736;-72
2023/03/12 01:49:47;;;;;;;;;;;;;;;-1.04;69.94;96500.25;109006;1251;99936;-74
2023/03/12 01:52:17;;;;;;;;;;;;;;;-1.05;69.95;96501.25;108965;1251;96907;-71
2023/03/12 01:54:50;;;;;;;;;;;;;;;-1.09;69.90;96502.77;108996;1251;97845;-72
2023/03/12 01:57:24;;;;;;;;;;;;;;;-1.13;69.83;96501.73;108984;1251;104774;-72
2023/03/12 01:59:54;;;;;;;;;;;;;;;-1.19;69.67;96505.34;109023;1251;101593;-72
2023/03/12 02:02:25;;;;;;;;;;;;;;;-1.23;69.75;96509.71;108992;1250;99524;-73
2023/03/12 02:05:03;;;;;;;;;;;;;;;-1.26;69.82;96510.65;108918;1251;96934;-72
2023/03/12 02:07:31;;;;;;;;;;;;;;;-1.24;69.98;96513.84;109033;1251;98261;-72
2023/03/12 02:09:59;;;;;;;;;;;;;;;-1.23;69.90;96517.61;108623;1251;103490;-74
2023/03/12 02:12:27;;;;;;;;;;;;;;;-1.22;69.89;96518.27;108715;1250;101315;-74
2023/03/12 02:14:55;;;;;;;;;;;;;;;-1.21;69.84;96522.35;108679;1249;99030;-74
2023/03/12 02:17:23;;;;;;;;;;;;;;;-1.21;69.82;96521.16;108694;1251;96990;-72
2023/03/12 02:19:51;;;;;;;;;;;;;;;-1.25;69.71;96529.82;108990;1250;97098;-74
2023/03/12 02:22:21;;;;;;;;;;;;;;;-1.25;69.80;96531.25;109007;1249;105023;-72
2023/03/12 02:24:54;;;;;;;;;;;;;;;-1.24;69.67;96539.23;108667;1258;101141;-71
2023/03/12 02:27:22;;;;;;;;;;;;;;;-1.22;69.71;96541.92;108640;1251;100274;-72
2023/03/12 02:29:50;;;;;;;;;;;;;;;-1.22;69.58;96547.67;108953;1253;96847;-71
2023/03/12 02:32:24;;;;;;;;;;;;;;;-1.23;69.58;96551.13;109017;1251;97026;-72
2023/03/12 02:34:52;;;;;;;;;;;;;;;-1.21;69.59;96557.86;108637;1251;105062;-72
2023/03/12 02:37:20;;;;;;;;;;;;;;;-1.19;69.53;96562.87;108967;1251;101377;-74
2023/03/12 02:39:58;;;;;;;;;;;;;;;-1.15;69.66;96563.06;108947;1250;100110;-71
2023/03/12 02:42:26;;;;;;;;;;;;;;;-1.13;69.83;96563.37;109009;1250;96948;-73
2023/03/12 02:44:54;;;;;;;;;;;;;;;-1.13;69.77;96565.95;109013;1251;97771;-72
2023/03/12 02:47:22;;;;;;;;;;;;;;;-1.15;69.60;96568.46;108689;1251;104774;-74
2023/03/12 02:49:52;;;;;;;;;;;;;;;-1.20;69.65;96567.96;108978;1251;101122;-72
2023/03/12 02:52:20;;;;;;;;;;;;;;;-1.22;69.58;96570.45;108724;1251;99994;-72
2023/03/12 02:54:48;;;;;;;;;;;;;;;-1.22;69.59;96577.58;108594;1250;97044;-72
2023/03/12 02:57:16;;;;;;;;;;;;;;;-1.25;69.58;96582.31;108676;1251;97010;-72
2023/03/12 02:59:44;;;;;;;;;;;;;;;-1.29;69.76;96587.95;108951;1250;112310;-72
2023/03/12 03:02:12;;;;;;;;;;;;;;;-1.32;69.65;96589.34;108649;1251;100529;-74
2023/03/12 03:04:40;;;;;;;;;;;;;;;-1.35;69.54;96588.69;108958;1251;100003;-72
2023/03/12 03:07:08;;;;;;;;;;;;;;;-1.36;69.70;96594.73;108935;1249;96942;-74
2023/03/12 03:09:36;;;;;;;;;;;;;;;-1.35;69.49;96594.65;108986;1250;97357;-74
2023/03/12 03:12:05;;;;;;;;;;;;;;;-1.34;69.53;96595.25;108958;1251;105001;-72
2023/03/12 03:14:33;;;;;;;;;;;;;;;-1.32;69.44;96597.30;108985;1251;101398;-74
2023/03/12 03:17:01;;;;;;;;;;;;;;;-1.31;69.41;96599.25;108567;1251;100039;-74
2023/03/12 03:19:29;;;;;;;;;;;;;;;-1.31;69.39;96599.98;108863;1251;96977;-73
2023/03/12 03:21:57;;;;;;;;;;;;;;;-1.31;69.41;96599.51;109005;1251;96952;-74
2023/03/12 03:24:25;;;;;;;;;;;;;;;-1.31;69.43;96600.88;109017;1251;105309;-72
2023/03/12 03:26:53;;;;;;;;;;;;;;;-1.33;69.28;96598.27;108992;1250;101617;-72
2023/03/12 03:29:21;;;;;;;;;;;;;;;-1.33;69.18;96599.55;108954;1251;99850;-72
2023/03/12 03:31:49;;;;;;;;;;;;;;;-1.33;69.28;96602.73;108952;1251;96845;-72
2023/03/12 03:34:17;;;;;;;;;;;;;;;-1.36;69.42;96610.59;108941;1251;96942;-71
2023/03/12 03:36:45;;;;;;;;;;;;;;;-1.34;69.48;96611.86;108971;1251;104609;-72
2023/03/12 03:39:13;;;;;;;;;;;;;;;-1.36;69.62;96613.57;108972;1253;101540;-72
2023/03/12 03:41:41;;;;;;;;;;;;;;;-1.37;69.62;96618.52;108602;1251;99925;-72
2023/03/12 03:44:09;;;;;;;;;;;;;;;-1.40;69.69;96622.00;108995;1250;97172;-74
2023/03/12 03:46:36;;;;;;;;;;;;;;;-1.41;69.70;96631.79;108991;1249;97119;-72
2023/03/12 03:49:04;;;;;;;;;;;;;;;-1.43;69.62;96631.58;108998;1250;104945;-75
2023/03/12 03:51:32;;;;;;;;;;;;;;;-1.46;69.67;96632.30;108973;1251;101380;-73
2023/03/12 03:54:00;;;;;;;;;;;;;;;-1.49;69.70;96632.24;108951;1250;99672;-72
2023/03/12 03:56:28;;;;;;;;;;;;;;;-1.52;69.72;96638.71;108962;1251;96853;-73
2023/03/12 03:58:56;;;;;;;;;;;;;;;-1.52;69.73;96639.42;108974;1250;96954;-72
2023/03/12 04:01:24;;;;;;;;;;;;;;;-1.51;69.60;96638.76;108956;1251;104921;-72
2023/03/12 04:03:52;;;;;;;;;;;;;;;-1.51;69.85;96643.60;108673;1250;101095;-72
2023/03/12 04:06:20;;;;;;;;;;;;;;;-1.52;70.00;96641.91;108960;1251;99869;-73
2023/03/12 04:08:48;;;;;;;;;;;;;;;-1.56;69.95;96644.20;109019;1249;96919;-72
2023/03/12 04:11:18;;;;;;;;;;;;;;;-1.60;69.97;96648.71;108982;1250;96923;-73
2023/03/12 04:13:47;;;;;;;;;;;;;;;-1.62;70.09;96651.05;109003;1251;105376;-73
2023/03/12 04:16:15;;;;;;;;;;;;;;;-1.59;69.94;96655.90;108988;1250;101467;-72
2023/03/12 04:18:44;;;;;;;;;;;;;;;-1.58;69.83;96656.08;108980;1251;98992;-72
2023/03/12 04:21:12;;;;;;;;;;;;;;;-1.60;69.59;96653.65;108939;1249;96946;-72
2023/03/12 04:23:41;;;;;;;;;;;;;;;-1.64;69.42;96654.04;108976;1250;96978;-74
2023/03/12 04:26:09;;;;;;;;;;;;;;;-1.63;69.49;96656.10;108619;1251;104905;-72
2023/03/12 04:28:37;;;;;;;;;;;;;;;-1.59;69.55;96661.82;108702;1251;101505;-72
2023/03/12 04:31:07;;;;;;;;;;;;;;;-1.55;69.55;96666.00;108939;1250;99958;-71
2023/03/12 04:33:36;;;;;;;;;;;;;;;-1.54;69.36;96667.11;108971;1251;96967;-72
2023/03/12 04:36:04;;;;;;;;;;;;;;;-1.51;69.29;96670.08;108697;1251;97114;-75
2023/03/12 04:38:32;;;;;;;;;;;;;;;-1.49;69.30;96672.68;108712;1251;104957;-72
2023/03/12 04:41:02;;;;;;;;;;;;;;;-1.47;69.25;96676.31;108586;1251;100614;-74
2023/03/12 04:43:30;;;;;;;;;;;;;;;-1.45;69.16;96680.77;108817;1251;99942;-73
2023/03/12 04:45:59;;;;;;;;;;;;;;;-1.46;69.08;96684.91;108915;1251;96906;-74
2023/03/12 04:48:27;;;;;;;;;;;;;;;-1.50;69.06;96687.89;108930;1251;96939;-72
2023/03/12 04:50:55;;;;;;;;;;;;;;;-1.48;69.26;96690.89;108919;1250;105075;-72
2023/03/12 04:53:23;;;;;;;;;;;;;;;-1.44;69.26;96694.21;108919;1249;101361;-73
2023/03/12 04:55:52;;;;;;;;;;;;;;;-1.40;69.36;96695.77;108928;1251;99809;-73
2023/03/12 04:58:21;;;;;;;;;;;;;;;-1.39;69.13;96697.73;108864;1251;96877;-73
2023/03/12 05:00:50;;;;;;;;;;;;;;;-1.40;68.82;96698.55;108929;1251;97051;-74
2023/03/12 05:03:18;;;;;;;;;;;;;;;-1.41;68.89;96697.97;108914;1250;104852;-72
2023/03/12 05:05:46;;;;;;;;;;;;;;;-1.39;68.81;96695.15;108672;1251;100074;-72
2023/03/12 05:08:14;;;;;;;;;;;;;;;-1.37;68.62;96700.77;108898;1251;99639;-73
2023/03/12 05:10:44;;;;;;;;;;;;;;;-1.34;68.76;96703.60;108571;1251;97376;-72
2023/03/12 05:13:16;;;;;;;;;;;;;;;-1.35;68.68;96701.58;108897;1249;97073;-72
2023/03/12 05:15:44;;;;;;;;;;;;;;;-1.34;68.61;96702.31;108721;1251;105577;-73
2023/03/12 05:18:12;;;;;;;;;;;;;;;-1.32;68.57;96702.11;108867;1251;101291;-72
2023/03/12 05:20:40;;;;;;;;;;;;;;;-1.32;68.66;96703.44;108887;1251;98984;-74
2023/03/12 05:23:08;;;;;;;;;;;;;;;-1.34;68.53;96704.17;108836;1251;96910;-72
2023/03/12 05:25:40;;;;;;;;;;;;;;;-1.36;68.33;96706.30;108722;1249;97072;-72
2023/03/12 05:28:08;;;;;;;;;;;;;;;-1.38;68.17;96706.51;108944;1251;104879;-72
2023/03/12 05:30:36;;;;;;;;;;;;;;;-1.41;68.18;96712.80;108930;1250;100727;-73
2023/03/12 05:33:04;;;;;;;;;;;;;;;-1.43;68.29;96717.91;108945;1251;100380;-72
2023/03/12 05:35:32;;;;;;;;;;;;;;;-1.45;68.04;96721.52;108892;1250;97001;-72
2023/03/12 05:38:00;;;;;;;;;;;;;;;-1.50;67.88;96719.30;109049;1249;97766;-74
2023/03/12 05:40:28;;;;;;;;;;;;;;;-1.53;67.83;96721.52;108665;1251;104460;-73
2023/03/12 05:42:56;;;;;;;;;;;;;;;-1.56;67.87;96718.11;108979;1250;101576;-73
2023/03/12 05:45:24;;;;;;;;;;;;;;;-1.63;67.72;96719.91;109015;1249;100030;-72
2023/03/12 05:47:52;;;;;;;;;;;;;;;-1.68;67.68;96721.67;109001;1250;96902;-75
2023/03/12 05:50:20;;;;;;;;;;;;;;;-1.69;67.79;96724.13;109094;1250;96949;-72
2023/03/12 05:52:48;;;;;;;;;;;;;;;-1.70;67.73;96725.08;109049;1250;105322;-73
2023/03/12 05:55:16;;;;;;;;;;;;;;;-1.73;67.74;96725.41;109013;1249;101683;-75
2023/03/12 05:57:44;;;;;;;;;;;;;;;-1.73;67.71;96735.27;109014;1250;99975;-72
2023/03/12 06:00:13;;;;;;;;;;;;;;;-1.74;67.60;96736.75;108964;1250;96930;-72
2023/03/12 06:02:42;;;;;;;;;;;;;;;-1.82;67.49;96739.12;109010;1250;97144;-73
2023/03/12 06:05:11;;;;;;;;;;;;;;;-1.89;67.50;96742.25;109026;1251;104868;-73
2023/03/12 06:07:39;;;;;;;;;;;;;;;-1.89;67.64;96746.80;109058;1250;101382;-72
2023/03/12 06:10:08;;;;;;;;;;;;;;;-1.88;67.59;96750.30;109045;1250;100100;-73
2023/03/12 06:12:36;;;;;;;;;;;;;;;-1.86;67.54;96754.36;109033;1249;96982;-74
2023/03/12 06:15:04;;;;;;;;;;;;;;;-1.83;67.55;96757.70;108994;1249;96928;-72
2023/03/12 06:17:32;;;;;;;;;;;;;;;-1.80;67.55;96757.42;109012;1250;104979;-75
2023/03/12 06:20:00;;;;;;;;;;;;;;;-1.74;67.47;96759.17;108983;1249;100394;-72
2023/03/12 06:22:29;;;;;;;;;;;;;;;-1.70;67.17;96761.95;108982;1250;99780;-72
2023/03/12 06:24:57;;;;;;;;;;;;;;;-1.66;67.20;96765.22;108999;1250;96922;-72
2023/03/12 06:27:25;;;;;;;;;;;;;;;-1.62;67.25;96766.65;108973;1250;96955;-72
2023/03/12 06:29:53;;;;;;;;;;;;;;;-1.59;67.25;96770.54;108993;1249;104953;-74
2023/03/12 06:32:21;;;;;;;;;;;;;;;-1.56;67.25;96767.95;109027;1250;101489;-74
2023/03/12 06:34:49;;;;;;;;;;;;;;;-1.54;67.11;96767.91;108972;1249;99153;-72
2023/03/12 06:37:17;;;;;;;;;;;;;;;-1.50;66.92;96774.41;108998;1250;96884;-73
2023/03/12 06:39:45;;;;;;;;;;;;;;;-1.48;66.98;96774.73;108996;1250;96963;-71
2023/03/12 06:42:13;;;;;;;;;;;;;;;-1.43;67.18;96782.64;109043;1250;105074;-73
2023/03/12 06:44:41;;;;;;;;;;;;;;;-1.38;66.96;96785.17;108963;1250;101342;-72
2023/03/12 06:47:09;;;;;;;;;;;;;;;-1.34;66.94;96789.24;109017;1250;99601;-72
2023/03/12 06:49:37;;;;;;;;;;;;;;;-1.31;66.77;96791.68;109010;1250;97150;-74
2023/03/12 06:52:06;;;;;;;;;;;;;;;-1.24;66.65;96794.77;109020;1249;97872;-72
2023/03/12 06:54:34;;;;;;;;;;;;;;;-1.15;66.85;96801.78;109063;1249;104502;-72
2023/03/12 06:57:01;;;;;;;;;;;;;;;-1.05;66.73;96803.80;108696;1250;100534;-72
2023/03/12 06:59:29;;;;;;;;;;;;;;;-0.93;66.39;96810.36;108982;1250;100146;-72
2023/03/12 07:01:57;;;;;;;;;;;;;;;-0.85;66.20;96812.90;109001;1250;96873;-74
2023/03/12 07:04:25;;;;;;;;;;;;;;;-0.80;66.17;96811.48;109031;1249;97862;-72
2023/03/12 07:06:53;;;;;;;;;;;;;;;-0.79;65.65;96813.29;109007;1250;103962;-72
2023/03/12 07:09:21;;;;;;;;;;;;;;;-0.74;65.55;96820.90;109022;1250;101088;-74
2023/03/12 07:11:49;;;;;;;;;;;;;;;-0.64;65.48;96823.45;109019;1249;99893;-74
2023/03/12 07:14:19;;;;;;;;;;;;;;;-0.59;65.46;96827.65;108949;1250;97264;-74
2023/03/12 07:16:47;;;;;;;;;;;;;;;-0.56;65.21;96828.27;108746;1249;97373;-72
2023/03/12 07:19:15;;;;;;;;;;;;;;;-0.54;65.12;96832.46;108988;1250;104841;-72
2023/03/12 07:21:43;;;;;;;;;;;;;;;-0.50;64.92;96832.88;108995;1250;101466;-75
2023/03/12 07:24:11;;;;;;;;;;;;;;;-0.47;64.73;96833.35;108694;1249;99852;-72
2023/03/12 07:26:39;;;;;;;;;;;;;;;-0.48;64.66;96832.55;108983;1249;96951;-74
2023/03/12 07:29:07;;;;;;;;;;;;;;;-0.44;64.88;96831.23;109025;1249;96941;-73
2023/03/12 07:31:35;;;;;;;;;;;;;;;-0.39;64.63;96830.37;108990;1250;104843;-74
2023/03/12 07:34:04;;;;;;;;;;;;;;;-0.34;64.60;96832.67;108995;1250;100351;-73
2023/03/12 07:36:33;;;;;;;;;;;;;;;-0.27;64.57;96836.65;108999;1250;100201;-72
2023/03/12 07:39:01;;;;;;;;;;;;;;;-0.22;64.68;96834.15;108945;1249;96900;-73
2023/03/12 07:41:28;;;;;;;;;;;;;;;-0.17;64.65;96832.42;108756;1250;97157;-72
2023/03/12 07:43:56;;;;;;;;;;;;;;;-0.13;64.32;96833.71;108969;1249;103429;-72
2023/03/12 07:46:33;;;;;;;;;;;;;;;-0.04;64.35;96831.19;102170;1303;635198;-72
2023/03/12 07:49:01;;;;;;;;;;;;;;;-0.01;64.25;96828.90;104166;1273;95935;-72
2023/03/12 07:51:29;;;;;;;;;;;;;;;0.04;64.17;96826.10;104265;1288;95860;-72
2023/03/12 07:53:57;;;;;;;;;;;;;;;0.13;64.19;96821.47;104362;1267;100247;-71
2023/03/12 07:56:25;;;;;;;;;;;;;;;0.25;64.10;96819.92;104870;1264;100159;-74
2023/03/12 07:58:53;;;;;;;;;;;;;;;0.39;63.91;96817.59;104982;1263;100452;-72
2023/03/12 08:01:21;;;;;;;;;;;;;;;0.44;63.55;96819.70;104851;1259;207228;-72
2023/03/12 08:03:49;;;;;;;;;;;;;;;0.47;63.20;96819.59;104961;1260;95915;-72
2023/03/12 08:06:17;;;;;;;;;;;;;;;0.52;63.17;96818.32;105087;1260;99994;-73
2023/03/12 08:08:45;;;;;;;;;;;;;;;0.56;63.12;96817.00;105108;1259;101745;-71
2023/03/12 08:11:13;;;;;;;;;;;;;;;0.58;63.08;96812.05;105081;1256;100630;-74
2023/03/12 08:13:41;;;;;;;;;;;;;;;0.61;63.01;96810.97;104700;1261;96844;-72
2023/03/12 08:16:09;;;;;;;;;;;;;;;0.72;62.92;96811.05;105048;1258;95829;-74
2023/03/12 08:18:37;;;;;;;;;;;;;;;0.88;62.94;96813.41;104894;1260;99944;-72
2023/03/12 08:21:05;;;;;;;;;;;;;;;0.99;62.84;96814.85;104663;1263;100592;-71
2023/03/12 08:23:33;;;;;;;;;;;;;;;1.11;62.58;96822.55;104596;1264;100377;-72
2023/03/12 08:26:01;;;;;;;;;;;;;;;1.26;62.35;96829.59;104720;1259;95892;-71
2023/03/12 08:28:29;;;;;;;;;;;;;;;1.41;62.31;96829.58;105069;1257;96670;-72
2023/03/12 08:30:59;;;;;;;;;;;;;;;1.48;61.92;96824.55;105029;1264;101429;-71
2023/03/12 08:33:27;;;;;;;;;;;;;;;1.56;61.65;96819.24;105088;1260;101888;-72
2023/03/12 08:35:55;;;;;;;;;;;;;;;1.65;61.55;96819.02;105086;1262;100389;-71
2023/03/12 08:38:23;;;;;;;;;;;;;;;1.75;61.46;96819.16;104927;1260;95998;-71
2023/03/12 08:40:55;;;;;;;;;;;;;;;1.95;61.34;96820.54;104959;1260;96126;-74
2023/03/12 08:43:22;;;;;;;;;;;;;;;2.15;61.21;96824.05;104869;1260;101624;-73
2023/03/12 08:45:58;;;;;;;;;;;;;;;2.34;60.95;96822.59;104816;1272;102500;-74
2023/03/12 08:48:26;;;;;;;;;;;;;;;2.49;60.69;96820.89;104828;1261;100571;-74
2023/03/12 08:50:55;;;;;;;;;;;;;;;2.66;60.41;96819.31;104799;1260;96161;-74
2023/03/12 08:53:24;;;;;;;;;;;;;;;2.91;60.55;96818.75;104948;1260;96232;-73
2023/03/12 08:55:55;;;;;;;;;;;;;;;3.10;60.27;96817.04;104861;1259;99952;-74
2023/03/12 08:58:24;;;;;;;;;;;;;;;3.32;60.15;96825.98;104881;1270;101822;-75
2023/03/12 09:00:52;;;;;;;;;;;;;;;3.53;60.03;96828.45;104804;1261;100459;-75
2023/03/12 09:03:21;;;;;;;;;;;;;;;3.71;59.50;96825.02;104747;1261;96837;-75
2023/03/12 09:05:49;;;;;;;;;;;;;;;3.88;59.13;96822.82;104797;1256;96001;-75
2023/03/12 09:08:18;;;;;;;;;;;;;;;3.96;58.92;96824.30;104833;1261;101231;-75
2023/03/12 09:10:49;;;;;;;;;;;;;;;4.03;58.82;96828.88;104829;1273;100583;-75
2023/03/12 09:13:17;;;;;;;;;;;;;;;3.97;58.21;96824.11;105076;1260;100712;-76
2023/03/12 09:15:45;;;;;;;;;;;;;;;3.83;58.11;96820.75;105027;1270;96515;-76
2023/03/12 09:18:13;;;;;;;;;;;;;;;3.79;58.20;96817.31;105053;1260;96192;-76
2023/03/12 09:20:42;;;;;;;;;;;;;;;3.79;58.11;96816.98;105066;1261;101264;-76
2023/03/12 09:23:10;;;;;;;;;;;;;;;3.79;58.10;96816.04;105119;1260;102801;-76
2023/03/12 09:25:38;;;;;;;;;;;;;;;3.77;58.30;96816.84;105042;1271;100481;-75
2023/03/12 09:28:06;;;;;;;;;;;;;;;3.70;58.09;96820.17;105060;1261;96664;-76
2023/03/12 09:30:34;;;;;;;;;;;;;;;3.72;57.71;96817.17;105085;1258;95854;-76
2023/03/12 09:33:02;;;;;;;;;;;;;;;3.72;57.67;96816.10;105088;1261;110220;-75
2023/03/12 09:35:31;;;;;;;;;;;;;;;3.79;57.02;96817.53;105151;1259;102200;-76
2023/03/12 09:37:59;;;;;;;;;;;;;;;3.84;57.18;96819.61;104897;1260;100464;-77
2023/03/12 09:40:29;;;;;;;;;;;;;;;3.87;57.19;96821.53;105116;1276;97180;-75
2023/03/12 09:43:05;;;;;;;;;;;;;;;3.90;57.27;96820.73;104940;1263;95851;-74
2023/03/12 09:45:38;;;;;;;;;;;;;;;4.08;57.49;96825.73;104799;1262;101388;-76
2023/03/12 09:48:08;;;;;;;;;;;;;;;4.17;56.85;96821.84;104983;1260;101760;-75
2023/03/12 09:50:39;;;;;;;;;;;;;;;3.98;55.96;96828.02;104985;1261;100441;-75
2023/03/12 09:53:30;;;;;;;;;;;;;;;3.87;56.32;96827.05;104800;1256;96121;-75
2023/03/12 09:55:59;;;;;;;;;;;;;;;3.92;56.51;96823.17;104340;1269;97975;-76
2023/03/12 09:58:29;;;;;;;;;;;;;;;4.10;56.79;96823.17;104446;1268;101350;-78
2023/03/12 10:01:07;;;;;;;;;;;;;;;4.28;56.69;96820.25;104650;1276;102212;-76
2023/03/12 10:03:46;;;;;;;;;;;;;;;4.43;56.25;96816.53;104450;1267;100676;-76
2023/03/12 10:06:17;;;;;;;;;;;;;;;4.56;56.26;96811.63;104358;1266;96980;-75
2023/03/12 10:08:57;;;;;;;;;;;;;;;4.72;56.01;96806.69;104687;1267;96716;-75
2023/03/12 10:11:25;;;;;;;;;;;;;;;4.70;55.76;96807.09;104293;1266;100216;-75
2023/03/12 10:14:05;;;;;;;;;;;;;;;4.71;55.80;96806.81;104349;1267;101876;-75
2023/03/12 10:16:54;;;;;;;;;;;;;;;4.79;55.64;96802.96;104635;1264;100524;-75
2023/03/12 10:19:32;;;;;;;;;;;;;;;4.82;55.40;96803.81;104608;1280;97260;-75
2023/03/12 10:22:07;;;;;;;;;;;;;;;4.86;55.42;96800.88;104415;1266;97449;-75
2023/03/12 10:24:55;;;;;;;;;;;;;;;4.98;55.21;96797.55;104447;1263;101454;-75
2023/03/12 10:27:25;;;;;;;;;;;;;;;5.10;54.92;96798.94;104357;1263;100318;-75
2023/03/12 10:29:53;;;;;;;;;;;;;;;5.36;54.83;96799.66;104350;1267;100485;-76
2023/03/12 10:32:36;;;;;;;;;;;;;;;5.61;54.61;96794.88;104307;1267;96818;-75
2023/03/12 10:35:13;;;;;;;;;;;;;;;5.66;54.45;96796.23;104765;1260;97151;-75
2023/03/12 10:37:44;;;;;;;;;;;;;;;5.66;53.91;96795.83;104862;1260;101289;-75
2023/03/12 10:40:33;;;;;;;;;;;;;;;5.81;53.84;96801.52;104892;1278;101908;-75
2023/03/12 10:43:05;;;;;;;;;;;;;;;6.06;53.68;96798.90;104964;1278;100450;-75
2023/03/12 10:45:40;;;;;;;;;;;;;;;6.31;52.94;96797.01;105129;1261;95851;-75
2023/03/12 10:48:10;;;;;;;;;;;;;;;6.35;52.31;96801.02;105061;1257;95859;-74
2023/03/12 10:50:40;;;;;;;;;;;;;;;6.28;52.22;96803.98;105032;1260;101414;-74
2023/03/12 10:53:22;;;;;;;;;;;;;;;6.33;52.27;96802.63;104850;1259;101930;-76
2023/03/12 10:55:59;;;;;;;;;;;;;;;6.42;51.26;96795.86;104860;1271;100523;-76
2023/03/12 10:58:32;;;;;;;;;;;;;;;6.48;51.35;96796.67;104910;1278;97085;-75
2023/03/12 11:01:01;;;;;;;;;;;;;;;6.55;51.42;96799.66;105002;1270;97066;-75
2023/03/12 11:03:29;;;;;;;;;;;;;;;6.61;50.93;96798.70;104775;1261;99878;-76
2023/03/12 11:06:01;;;;;;;;;;;;;;;6.79;50.63;96796.85;104846;1260;101828;-76
2023/03/12 11:08:35;;;;;;;;;;;;;;;6.74;50.32;96796.96;104877;1257;99915;-76
2023/03/12 11:11:04;;;;;;;;;;;;;;;6.70;50.22;96801.77;104563;1264;96347;-74
2023/03/12 11:13:32;;;;;;;;;;;;;;;6.92;50.53;96800.11;104854;1273;96827;-75
2023/03/12 11:16:01;;;;;;;;;;;;;;;7.18;50.54;96800.77;104872;1257;102366;-76
2023/03/12 11:18:32;;;;;;;;;;;;;;;7.39;49.89;96796.16;104911;1267;101714;-75
2023/03/12 11:21:09;;;;;;;;;;;;;;;7.48;49.40;96793.69;105123;1260;103081;-78
2023/03/12 11:23:42;;;;;;;;;;;;;;;7.42;48.62;96791.48;105116;1257;96187;-75
2023/03/12 11:26:21;;;;;;;;;;;;;;;7.45;47.94;96789.39;105044;1259;95851;-75
2023/03/12 11:28:56;;;;;;;;;;;;;;;7.66;47.94;96789.50;104760;1259;101295;-75
2023/03/12 11:31:29;;;;;;;;;;;;;;;7.70;47.72;96788.67;104855;1261;101836;-78
2023/03/12 11:34:01;;;;;;;;;;;;;;;7.68;47.78;96788.81;105046;1260;100592;-75
2023/03/12 11:36:39;;;;;;;;;;;;;;;7.74;48.01;96786.02;105111;1275;97186;-76
2023/03/12 11:39:18;;;;;;;;;;;;;;;7.68;47.85;96787.92;105085;1260;95876;-77
2023/03/12 11:41:59;;;;;;;;;;;;;;;7.66;48.05;96785.30;104601;1263;109056;-77
2023/03/12 11:44:34;;;;;;;;;;;;;;;7.52;48.02;96784.55;104917;1260;102108;-75
2023/03/12 11:47:05;;;;;;;;;;;;;;;7.37;47.63;96783.07;104862;1259;100475;-75
2023/03/12 11:49:51;;;;;;;;;;;;;;;7.24;47.55;96781.32;104873;1260;95842;-76
2023/03/12 11:52:31;;;;;;;;;;;;;;;7.08;47.44;96777.63;104845;1258;95848;-76
2023/03/12 11:55:02;;;;;;;;;;;;;;;6.95;47.17;96775.46;105116;1276;101141;-76
2023/03/12 11:57:49;;;;;;;;;;;;;;;6.86;47.06;96774.67;104820;1263;101877;-75
2023/03/12 12:00:19;;;;;;;;;;;;;;;6.83;47.17;96774.41;104936;1268;100520;-76
2023/03/12 12:03:06;;;;;;;;;;;;;;;6.84;47.33;96774.17;104626;1264;96890;-74
2023/03/12 12:05:33;;;;;;;;;;;;;;;6.88;47.33;96775.30;104964;1259;96584;-76
2023/03/12 12:08:01;;;;;;;;;;;;;;;6.84;47.06;96775.48;104904;1258;101155;-75
2023/03/12 12:10:42;;;;;;;;;;;;;;;6.79;46.91;96775.88;104985;1260;101793;-75
2023/03/12 12:13:12;;;;;;;;;;;;;;;6.75;46.82;96777.40;104959;1260;100330;-75
2023/03/12 12:15:43;;;;;;;;;;;;;;;6.79;46.54;96780.52;104858;1260;97762;-75
2023/03/12 12:18:23;;;;;;;;;;;;;;;6.74;46.41;96780.70;104860;1260;96618;-74
2023/03/12 12:21:09;;;;;;;;;;;;;;;7.22;46.40;96785.66;104862;1257;102374;-74
2023/03/12 12:23:56;;;;;;;;;;;;;;;7.55;45.92;96782.52;104930;1257;101774;-74
2023/03/12 12:26:37;;;;;;;;;;;;;;;8.17;46.00;96778.49;104912;1261;100449;-74
2023/03/12 12:29:11;;;;;;;;;;;;;;;8.72;45.61;96781.38;104954;1259;96637;-74
2023/03/12 12:31:43;;;;;;;;;;;;;;;8.97;44.75;96780.03;105047;1260;97492;-74
2023/03/12 12:34:17;;;;;;;;;;;;;;;9.25;44.83;96779.96;105075;1260;110539;-74
2023/03/12 12:36:49;;;;;;;;;;;;;;;9.36;44.38;96781.42;105101;1258;101698;-74
2023/03/12 12:39:32;;;;;;;;;;;;;;;9.35;43.55;96777.20;104702;1257;99639;-74
2023/03/12 12:42:04;;;;;;;;;;;;;;;9.32;43.38;96775.40;104821;1261;97358;-75
2023/03/12 12:44:39;;;;;;;;;;;;;;;9.44;43.70;96776.64;104749;1260;96657;-74
2023/03/12 12:47:12;;;;;;;;;;;;;;;9.53;43.64;96779.80;104752;1259;103002;-74
2023/03/12 12:49:51;;;;;;;;;;;;;;;9.51;42.92;96775.34;104760;1255;100452;-74